Time;durP1;ratioP1;P1;durP2;ratioP2;P2;SDS_P1;SDS_P2;PMS_P1;PMS_P2;Temp;Humidity;BMP_temperature;BMP_pressure;BME280_temperature;BME280_humidity;BME280_pressure;Samples;Min_cycle;Max_cycle;Signal;HPM_P1;HPM_P2
2022/04/21 00:00:42;;;;;;;7.43;3.10;;;8.40;99.90;8.40;100259.00;;;;4876489;28;99177;-69
2022/04/21 00:03:09;;;;;;;4.87;3.10;;;8.40;99.90;8.40;100255.00;;;;4858571;28;93731;-69
2022/04/21 00:05:35;;;;;;;2.70;2.50;;;8.50;99.90;8.40;100259.00;;;;4858935;28;93204;-70
2022/04/21 00:08:01;;;;;;;3.20;2.87;;;8.40;99.90;8.40;100249.00;;;;4844890;28;92887;-69
2022/04/21 00:10:28;;;;;;;4.83;3.60;;;8.40;99.90;8.40;100258.00;;;;4877965;28;92841;-69
2022/04/21 00:12:57;;;;;;;4.27;3.33;;;8.50;99.90;8.40;100246.00;;;;4876473;28;93578;-69
2022/04/21 00:15:24;;;;;;;4.37;2.80;;;8.40;99.90;8.40;100256.00;;;;4878021;28;93121;-70
2022/04/21 00:17:50;;;;;;;5.67;3.13;;;8.40;99.90;8.40;100239.00;;;;4877097;28;102547;-70
2022/04/21 00:20:16;;;;;;;3.70;2.67;;;8.50;99.90;8.40;100239.00;;;;4881405;28;100576;-70
2022/04/21 00:25:27;;;;;;;4.53;2.30;;;8.50;99.90;8.40;100237.00;;;;4878546;28;93477;-70
2022/04/21 00:27:53;;;;;;;6.50;2.93;;;8.40;99.90;8.40;100237.00;;;;4884405;28;92834;-71
2022/04/21 00:30:19;;;;;;;3.50;2.63;;;8.40;99.90;8.40;100235.00;;;;4877485;28;94031;-72
2022/04/21 00:32:46;;;;;;;5.60;3.30;;;8.40;99.90;8.40;100223.00;;;;4858419;28;104663;-71
2022/04/21 00:35:13;;;;;;;3.67;3.07;;;8.40;99.90;8.40;100228.00;;;;4877610;28;93658;-71
2022/04/21 00:37:56;;;;;;;3.30;3.00;;;8.40;99.90;8.40;100219.00;;;;4876974;28;92933;-71
2022/04/21 00:40:29;;;;;;;6.53;3.27;;;8.50;99.90;8.40;100227.00;;;;4862987;28;93509;-71
2022/04/21 00:42:56;;;;;;;5.17;2.63;;;8.40;99.90;8.40;100237.00;;;;4861329;28;93417;-71
2022/04/21 00:45:22;;;;;;;4.47;3.10;;;8.40;99.90;8.30;100230.00;;;;4876888;28;93002;-71
2022/04/21 00:47:50;;;;;;;3.13;2.57;;;8.40;99.90;8.40;100235.00;;;;4858681;28;93825;-70
2022/04/21 00:50:30;;;;;;;3.67;2.67;;;8.40;99.90;8.30;100234.00;;;;4864572;28;100000;-71
2022/04/21 00:52:58;;;;;;;4.40;2.43;;;8.40;99.90;8.30;100231.00;;;;4839393;28;95422;-70
2022/04/21 00:55:24;;;;;;;5.63;2.93;;;8.40;99.90;8.30;100232.00;;;;4860001;28;93009;-70
2022/04/21 00:57:53;;;;;;;5.00;3.27;;;8.40;99.90;8.30;100235.00;;;;4877102;28;92855;-70
2022/04/21 01:00:19;;;;;;;3.13;2.73;;;8.40;99.90;8.30;100228.00;;;;4863868;28;93030;-70
2022/04/21 01:02:51;;;;;;;3.53;2.57;;;8.40;99.90;8.30;100232.00;;;;4855950;28;92897;-70
2022/04/21 01:05:30;;;;;;;3.50;2.93;;;8.40;99.90;8.30;100228.00;;;;4858882;28;92866;-70
2022/04/21 01:08:01;;;;;;;3.53;2.57;;;8.40;99.90;8.30;100227.00;;;;4858171;28;93222;-70
2022/04/21 01:10:29;;;;;;;4.33;3.17;;;8.40;99.90;8.30;100230.00;;;;4869089;28;92712;-70
2022/04/21 01:12:55;;;;;;;5.13;2.70;;;8.30;99.90;8.30;100228.00;;;;4876025;28;93777;-70
2022/04/21 01:15:22;;;;;;;4.87;3.50;;;8.40;99.90;8.30;100221.00;;;;4876766;28;93822;-70
2022/04/21 01:17:48;;;;;;;4.50;3.00;;;8.40;99.90;8.30;100225.00;;;;4872423;28;92674;-69
2022/04/21 01:20:22;;;;;;;3.47;2.90;;;8.30;99.90;8.30;100226.00;;;;4866726;28;92818;-70
2022/04/21 01:22:48;;;;;;;5.60;3.47;;;8.30;99.90;8.30;100228.00;;;;4872560;28;94846;-70
2022/04/21 01:25:14;;;;;;;3.90;2.77;;;8.30;99.90;8.30;100225.00;;;;4876951;28;98722;-70
2022/04/21 01:27:41;;;;;;;3.80;2.80;;;8.40;99.90;8.30;100229.00;;;;4876424;28;93178;-69
2022/04/21 01:30:10;;;;;;;3.50;2.97;;;8.40;99.90;8.30;100214.00;;;;4876903;28;99703;-69
2022/04/21 01:32:36;;;;;;;5.93;3.47;;;8.40;99.90;8.30;100211.00;;;;4875404;28;94154;-69
2022/04/21 01:35:20;;;;;;;5.27;3.10;;;8.40;99.90;8.30;100218.00;;;;4876855;28;93446;-69
2022/04/21 01:43:15;;;;;;;4.13;3.23;;;8.40;99.90;8.30;100202.00;;;;4875962;28;92849;-69
2022/04/21 01:45:42;;;;;;;4.93;2.83;;;8.40;99.90;8.40;100211.00;;;;4876246;28;93499;-69
2022/04/21 01:48:08;;;;;;;3.33;2.80;;;8.40;99.90;8.40;100208.00;;;;4870551;28;93078;-69
2022/04/21 01:50:33;;;;;;;3.90;2.83;;;8.40;99.90;8.30;100201.00;;;;4856988;28;108806;-69
2022/04/21 01:52:59;;;;;;;4.43;3.43;;;8.50;99.90;8.30;100210.00;;;;4857400;28;93246;-69
2022/04/21 01:55:26;;;;;;;5.03;3.17;;;8.40;99.90;8.30;100205.00;;;;4872909;28;93120;-69
2022/04/21 01:57:52;;;;;;;5.83;2.83;;;8.40;99.90;8.30;100202.00;;;;4860367;28;101088;-69
2022/04/21 02:00:18;;;;;;;4.20;3.07;;;8.40;99.90;8.30;100194.00;;;;4877503;28;93109;-68
2022/04/21 02:02:44;;;;;;;4.77;2.40;;;8.40;99.90;8.30;100197.00;;;;4874926;28;95115;-69
2022/04/21 02:05:09;;;;;;;4.90;2.23;;;8.40;99.90;8.30;100195.00;;;;4875241;28;123887;-68
2022/04/21 02:07:36;;;;;;;5.50;3.50;;;8.40;99.90;8.30;100193.00;;;;4874841;28;109378;-67
2022/04/21 02:10:05;;;;;;;5.97;3.27;;;8.40;99.90;8.30;100189.00;;;;4840133;28;93219;-69
2022/04/21 02:12:31;;;;;;;4.00;3.00;;;8.40;99.90;8.30;100191.00;;;;4856677;28;94332;-68
2022/04/21 02:14:57;;;;;;;12.53;3.07;;;8.40;99.90;8.30;100195.00;;;;4856060;28;123886;-68
2022/04/21 02:17:25;;;;;;;4.43;3.03;;;8.40;99.90;8.30;100190.00;;;;4857108;28;92770;-68
2022/04/21 02:19:51;;;;;;;4.30;3.07;;;8.40;99.90;8.30;100180.00;;;;4875726;28;92527;-68
2022/04/21 02:22:17;;;;;;;5.93;2.53;;;8.40;99.90;8.30;100178.00;;;;4857172;28;95238;-68
2022/04/21 02:24:42;;;;;;;6.47;3.63;;;8.40;99.90;8.30;100181.00;;;;4875125;28;114899;-67
2022/04/21 02:27:08;;;;;;;4.20;3.00;;;8.40;99.90;8.40;100177.00;;;;4874904;28;110052;-67
2022/04/21 02:29:34;;;;;;;3.33;2.60;;;8.40;99.90;8.40;100178.00;;;;4874731;28;108734;-67
2022/04/21 02:32:01;;;;;;;7.60;3.47;;;8.40;99.90;8.40;100174.00;;;;4875375;28;104893;-67
2022/04/21 02:34:29;;;;;;;6.13;3.10;;;8.40;99.90;8.40;100169.00;;;;4875885;28;93835;-67
2022/04/21 02:36:55;;;;;;;4.47;3.60;;;8.50;99.90;8.40;100172.00;;;;4875814;28;92936;-69
2022/04/21 02:39:21;;;;;;;2.50;2.30;;;8.50;99.90;8.40;100170.00;;;;4863034;28;93084;-66
2022/04/21 02:41:47;;;;;;;5.30;3.50;;;8.50;99.90;8.40;100166.00;;;;4855972;28;122174;-67
2022/04/21 02:44:12;;;;;;;4.87;2.87;;;8.50;99.90;8.40;100165.00;;;;4855769;28;122931;-66
2022/04/21 02:46:38;;;;;;;3.37;2.50;;;8.50;99.90;8.40;100172.00;;;;4855953;28;106435;-66
2022/04/21 02:49:04;;;;;;;9.47;2.87;;;8.50;99.90;8.40;100169.00;;;;4863170;28;106854;-67
2022/04/21 02:51:30;;;;;;;4.80;3.67;;;8.50;99.90;8.40;100167.00;;;;4855205;28;120118;-67
2022/04/21 02:59:29;;;;;;;3.23;2.77;;;8.40;99.90;8.30;100177.00;;;;4868029;28;92767;-66
2022/04/21 03:01:54;;;;;;;2.97;2.47;;;8.40;99.90;8.30;100176.00;;;;4874682;28;107261;-66
2022/04/21 03:04:21;;;;;;;4.67;3.07;;;8.40;99.90;8.30;100171.00;;;;4874562;28;122530;-66
2022/04/21 03:06:47;;;;;;;6.43;3.63;;;8.40;99.90;8.30;100165.00;;;;4874865;28;93102;-67
2022/04/21 03:09:12;;;;;;;7.47;3.67;;;8.40;99.90;8.30;100177.00;;;;4863767;28;102206;-66
2022/04/21 03:11:38;;;;;;;6.60;4.10;;;8.40;99.90;8.30;100166.00;;;;4856100;28;93847;-66
2022/04/21 03:14:04;;;;;;;5.93;3.67;;;8.10;99.90;8.30;100167.00;;;;4855380;28;121460;-66
2022/04/21 03:16:29;;;;;;;4.93;3.27;;;8.40;99.90;8.30;100176.00;;;;4854967;28;110255;-66
2022/04/21 03:18:55;;;;;;;6.57;4.13;;;8.30;99.90;8.30;100172.00;;;;4865352;28;108879;-67
2022/04/21 03:24:20;;;;;;;8.03;4.10;;;8.30;99.90;8.20;100178.00;;;;4853239;28;93008;-66
2022/04/21 03:26:51;;;;;;;5.07;3.53;;;8.30;99.90;8.20;100172.00;;;;4865836;28;92927;-66
2022/04/21 03:29:18;;;;;;;5.40;2.93;;;8.30;99.90;8.20;100176.00;;;;4863191;28;102054;-66
2022/04/21 03:31:44;;;;;;;4.17;3.40;;;8.30;99.90;8.20;100170.00;;;;4855777;28;93683;-66
2022/04/21 03:34:15;;;;;;;5.37;3.90;;;8.30;99.90;8.20;100168.00;;;;4855796;28;93736;-66
2022/04/21 03:36:45;;;;;;;3.60;3.23;;;8.20;99.90;8.10;100178.00;;;;4854211;28;92767;-66
2022/04/21 03:39:11;;;;;;;5.43;3.13;;;8.20;99.90;8.10;100185.00;;;;4866466;28;93065;-66
2022/04/21 03:41:37;;;;;;;11.33;3.80;;;8.20;99.90;8.10;100165.00;;;;4873300;28;113776;-66
2022/04/21 03:44:04;;;;;;;6.13;3.37;;;8.20;99.90;8.10;100163.00;;;;4875278;28;94827;-66
2022/04/21 03:46:30;;;;;;;5.70;4.37;;;8.20;99.90;8.10;100176.00;;;;4875612;28;92849;-66
2022/04/21 03:48:56;;;;;;;6.53;4.17;;;8.20;99.90;8.10;100176.00;;;;4868172;28;92755;-66
2022/04/21 03:51:22;;;;;;;5.83;3.97;;;8.20;99.90;8.10;100178.00;;;;4855592;28;92818;-66
2022/04/21 03:53:48;;;;;;;3.63;3.03;;;8.20;99.90;8.10;100182.00;;;;4855667;28;122665;-66
2022/04/21 03:56:16;;;;;;;5.13;4.40;;;8.20;99.90;8.10;100176.00;;;;4857722;28;110230;-66
2022/04/21 03:58:42;;;;;;;6.97;4.00;;;8.20;99.90;8.10;100175.00;;;;4862518;28;109285;-66
2022/04/21 04:01:07;;;;;;;5.17;3.40;;;8.20;99.90;8.10;100186.00;;;;4869240;28;115987;-66
2022/04/21 04:03:33;;;;;;;3.20;2.50;;;8.20;99.90;8.10;100170.00;;;;4854584;28;122782;-66
2022/04/21 04:05:59;;;;;;;4.13;3.20;;;8.20;99.90;8.10;100184.00;;;;4855803;28;94286;-66
2022/04/21 04:11:10;;;;;;;3.73;3.30;;;8.20;99.90;8.10;100182.00;;;;4853066;28;92889;-66
2022/04/21 04:13:35;;;;;;;3.40;2.73;;;8.20;99.90;8.10;100181.00;;;;4861078;28;93089;-66
2022/04/21 04:16:01;;;;;;;4.40;3.33;;;8.20;99.90;8.20;100175.00;;;;4873628;28;110028;-66
2022/04/21 04:18:28;;;;;;;5.60;3.67;;;8.20;99.90;8.20;100180.00;;;;4871645;28;92754;-67
2022/04/21 04:20:54;;;;;;;5.60;3.20;;;8.20;99.90;8.20;100191.00;;;;4867020;28;93078;-66
2022/04/21 04:23:22;;;;;;;4.87;3.03;;;8.30;99.90;8.20;100196.00;;;;4873884;28;122410;-66
2022/04/21 04:25:48;;;;;;;7.93;3.70;;;8.20;99.90;8.20;100195.00;;;;4874799;28;92735;-66
2022/04/21 04:28:14;;;;;;;3.83;3.03;;;8.20;99.90;8.20;100199.00;;;;4873451;28;108231;-66
2022/04/21 04:30:42;;;;;;;6.07;3.50;;;8.30;99.90;8.20;100192.00;;;;4871354;28;122616;-66
2022/04/21 04:33:08;;;;;;;4.17;3.27;;;8.20;99.90;8.20;100192.00;;;;4865396;28;93630;-66
2022/04/21 04:35:34;;;;;;;4.33;2.80;;;8.20;99.90;8.10;100190.00;;;;4838317;28;92998;-65
2022/04/21 04:38:00;;;;;;;4.73;3.20;;;8.20;99.90;8.10;100205.00;;;;4855300;28;101582;-65
2022/04/21 04:40:26;;;;;;;3.73;3.03;;;8.20;99.90;8.20;100199.00;;;;4854361;28;123241;-65
2022/04/21 04:42:55;;;;;;;6.30;3.37;;;8.20;99.90;8.20;100197.00;;;;4855851;28;98945;-65
2022/04/21 04:48:05;;;;;;;3.80;3.50;;;8.20;99.90;8.20;100196.00;;;;4858845;28;92077;-65
2022/04/21 04:50:31;;;;;;;8.50;3.37;;;8.30;99.90;8.20;100202.00;;;;4857967;28;105159;-66
2022/04/21 04:52:59;;;;;;;5.27;3.27;;;8.20;99.90;8.20;100207.00;;;;4868264;28;102535;-65
2022/04/21 04:55:26;;;;;;;5.80;3.73;;;8.30;99.90;8.20;100199.00;;;;4859295;28;93706;-66
2022/04/21 04:57:52;;;;;;;4.53;2.60;;;8.30;99.90;8.10;100201.00;;;;4859205;28;92828;-65
2022/04/21 05:00:18;;;;;;;4.13;3.33;;;8.30;99.90;8.10;100193.00;;;;4858628;28;93155;-65
2022/04/21 05:02:44;;;;;;;3.70;2.63;;;8.20;99.90;8.10;100200.00;;;;4866408;28;106976;-65
2022/04/21 05:05:14;;;;;;;6.13;4.27;;;8.20;99.90;8.10;100197.00;;;;4877746;28;93119;-65
2022/04/21 05:07:40;;;;;;;5.30;2.97;;;8.20;99.90;8.10;100196.00;;;;4861784;28;93349;-65
2022/04/21 05:10:08;;;;;;;13.23;3.50;;;8.20;99.90;8.10;100203.00;;;;4857821;28;99959;-65
2022/04/21 05:12:34;;;;;;;8.97;3.43;;;8.20;99.90;8.10;100201.00;;;;4865268;28;93663;-65
2022/04/21 05:15:00;;;;;;;3.53;2.77;;;8.10;99.90;8.00;100198.00;;;;4877532;28;92768;-65
2022/04/21 05:17:27;;;;;;;4.33;3.40;;;8.10;99.90;8.00;100199.00;;;;4876704;28;95964;-65
2022/04/21 05:19:53;;;;;;;5.70;3.67;;;8.10;99.90;8.00;100195.00;;;;4876674;28;95224;-65
2022/04/21 05:22:37;;;;;;;4.00;3.13;;;8.10;99.90;8.00;100198.00;;;;4871248;28;95027;-65
2022/04/21 05:25:08;;;;;;;4.27;3.23;;;8.10;99.90;8.00;100200.00;;;;4856600;28;92958;-65
2022/04/21 05:27:34;;;;;;;5.93;3.13;;;8.10;99.90;8.10;100190.00;;;;4866508;28;92803;-65
2022/04/21 05:32:48;;;;;;;9.07;3.87;;;8.20;99.90;8.10;100195.00;;;;4875309;28;92937;-66
2022/04/21 05:35:16;;;;;;;5.83;3.17;;;8.20;99.90;8.10;100195.00;;;;4876840;28;95634;-65
2022/04/21 05:37:42;;;;;;;6.03;3.23;;;8.20;99.90;8.20;100202.00;;;;4870675;28;92577;-66
2022/04/21 05:40:08;;;;;;;4.83;3.33;;;8.20;99.90;8.20;100188.00;;;;4855149;28;94045;-66
2022/04/21 05:42:38;;;;;;;5.57;3.33;;;8.30;99.90;8.20;100194.00;;;;4861552;28;111245;-65
2022/04/21 05:45:05;;;;;;;5.13;3.43;;;8.20;99.90;8.20;100198.00;;;;4873236;28;93646;-65
2022/04/21 05:47:32;;;;;;;3.67;2.90;;;8.30;99.90;8.20;100192.00;;;;4872903;28;92952;-65
2022/04/21 05:49:58;;;;;;;4.10;2.70;;;8.00;99.90;8.30;100196.00;;;;4872521;28;112443;-64
2022/04/21 05:52:28;;;;;;;8.07;3.30;;;8.30;99.90;8.30;100194.00;;;;4869308;28;93569;-65
2022/04/21 05:54:54;;;;;;;5.57;3.47;;;8.30;99.90;8.30;100193.00;;;;4873129;28;92870;-65
2022/04/21 05:57:27;;;;;;;5.37;3.50;;;8.40;99.90;8.30;100186.00;;;;4873139;28;93165;-65
2022/04/21 05:59:53;;;;;;;5.87;3.73;;;8.40;99.90;8.30;100182.00;;;;4872647;28;93890;-66
2022/04/21 06:02:18;;;;;;;3.60;3.00;;;8.40;99.90;8.40;100190.00;;;;4867834;28;121277;-65
2022/04/21 06:04:44;;;;;;;7.33;2.97;;;8.40;99.90;8.40;100185.00;;;;4864764;28;110816;-65
2022/04/21 06:07:09;;;;;;;3.10;2.40;;;8.50;99.90;8.40;100188.00;;;;4854314;28;108746;-64
2022/04/21 06:09:35;;;;;;;6.97;3.33;;;8.50;99.90;8.40;100184.00;;;;4869945;28;122685;-64
2022/04/21 06:12:02;;;;;;;5.90;3.60;;;8.50;99.90;8.50;100191.00;;;;4853295;28;94775;-65
2022/04/21 06:14:27;;;;;;;5.00;3.67;;;8.50;99.90;8.50;100184.00;;;;4870917;28;92715;-65
2022/04/21 06:16:53;;;;;;;4.27;3.37;;;8.60;99.90;8.50;100179.00;;;;4871770;28;109149;-65
2022/04/21 06:19:19;;;;;;;3.47;3.13;;;8.60;99.90;8.50;100184.00;;;;4871714;28;123112;-65
2022/04/21 06:21:44;;;;;;;4.93;2.93;;;8.60;99.90;8.60;100180.00;;;;4871600;28;122693;-66
2022/04/21 06:24:10;;;;;;;9.03;3.77;;;8.60;99.90;8.60;100184.00;;;;4867537;28;96963;-66
2022/04/21 06:26:45;;;;;;;4.63;3.13;;;8.60;99.90;8.60;100181.00;;;;4872915;28;92059;-66
2022/04/21 06:29:11;;;;;;;5.27;3.57;;;8.60;99.90;8.60;100184.00;;;;4871796;28;121847;-66
2022/04/21 06:31:36;;;;;;;7.13;3.90;;;8.70;99.90;8.70;100184.00;;;;4871956;28;100471;-66
2022/04/21 06:34:03;;;;;;;5.93;3.50;;;8.70;99.90;8.70;100192.00;;;;4867437;28;93771;-66
2022/04/21 06:36:28;;;;;;;6.93;3.07;;;8.70;99.90;8.70;100189.00;;;;4872635;28;93082;-66
2022/04/21 06:38:54;;;;;;;5.87;3.37;;;8.70;99.90;8.80;100198.00;;;;4871121;28;121179;-66
2022/04/21 06:41:20;;;;;;;5.70;3.30;;;8.80;99.90;8.80;100188.00;;;;4853728;28;120429;-66
2022/04/21 06:49:14;;;;;;;3.87;3.57;;;8.90;99.90;8.80;100201.00;;;;4869607;28;93149;-65
2022/04/21 06:51:40;;;;;;;7.70;3.90;;;8.90;99.90;8.90;100196.00;;;;4871107;28;122687;-65
2022/04/21 06:54:07;;;;;;;7.77;3.83;;;8.90;99.90;8.90;100200.00;;;;4866497;28;93207;-66
2022/04/21 06:56:32;;;;;;;12.90;4.43;;;8.90;99.90;8.90;100193.00;;;;4854206;28;93358;-66
2022/04/21 06:58:59;;;;;;;4.97;3.70;;;8.90;99.90;8.90;100195.00;;;;4869807;28;124402;-66
2022/04/21 07:01:24;;;;;;;5.00;3.90;;;8.90;99.90;8.90;100187.00;;;;4871605;28;94551;-66
2022/04/21 07:03:50;;;;;;;7.10;4.17;;;8.90;99.90;8.90;100203.00;;;;4865630;28;108947;-66
2022/04/21 07:06:17;;;;;;;6.27;4.67;;;8.90;99.90;8.90;100198.00;;;;4871185;28;109283;-65
2022/04/21 07:08:42;;;;;;;5.37;4.00;;;8.90;99.90;8.90;100204.00;;;;4870814;28;94104;-66
2022/04/21 07:11:08;;;;;;;9.40;4.33;;;8.90;99.90;8.90;100218.00;;;;4870638;28;123095;-66
2022/04/21 07:13:34;;;;;;;7.53;4.47;;;8.90;99.90;8.90;100218.00;;;;4865710;28;92981;-65
2022/04/21 07:15:59;;;;;;;8.73;4.97;;;8.90;99.90;8.90;100217.00;;;;4872014;28;92262;-66
2022/04/21 07:18:25;;;;;;;6.37;4.87;;;8.90;99.90;8.90;100214.00;;;;4871685;28;93154;-65
2022/04/21 07:20:50;;;;;;;11.83;5.20;;;8.90;99.90;8.90;100224.00;;;;4870368;28;94089;-66
2022/04/21 07:23:16;;;;;;;11.70;6.17;;;8.90;99.90;8.90;100222.00;;;;4870072;28;111360;-67
2022/04/21 07:25:42;;;;;;;7.73;5.33;;;8.90;99.90;8.90;100232.00;;;;4871382;28;107568;-67
2022/04/21 07:28:07;;;;;;;7.63;5.17;;;9.00;99.90;8.90;100230.00;;;;4870399;28;106457;-66
2022/04/21 07:30:33;;;;;;;9.00;5.93;;;8.90;99.90;8.90;100225.00;;;;4869482;28;105815;-65
2022/04/21 07:32:59;;;;;;;12.93;6.00;;;8.90;99.90;8.80;100218.00;;;;4870770;28;111889;-66
2022/04/21 07:35:24;;;;;;;9.00;5.27;;;8.90;99.90;8.90;100220.00;;;;4871617;28;93031;-65
2022/04/21 07:37:50;;;;;;;9.80;6.43;;;8.90;99.90;8.90;100233.00;;;;4870494;28;122453;-65
2022/04/21 07:40:23;;;;;;;11.83;6.30;;;8.90;99.90;8.90;100233.00;;;;4869875;28;122971;-65
2022/04/21 07:42:49;;;;;;;11.93;6.70;;;8.90;99.90;8.90;100232.00;;;;4871417;28;92728;-65
2022/04/21 07:45:15;;;;;;;12.03;6.07;;;8.90;99.90;8.90;100237.00;;;;4870449;28;106429;-65
2022/04/21 07:47:40;;;;;;;7.83;6.20;;;8.90;99.90;8.90;100245.00;;;;4870408;28;103044;-65
2022/04/21 07:50:06;;;;;;;12.53;6.53;;;9.00;99.90;8.90;100234.00;;;;4868245;28;124287;-65
2022/04/21 07:55:25;;;;;;;15.07;8.60;;;8.90;99.90;8.90;100239.00;;;;4868835;28;92954;-66
2022/04/21 07:57:56;;;;;;;17.83;7.90;;;9.00;99.90;8.90;100223.00;;;;4866604;28;103596;-66
2022/04/21 08:00:22;;;;;;;8.90;5.67;;;8.90;99.90;8.90;100227.00;;;;4870376;28;93417;-65
2022/04/21 08:02:48;;;;;;;10.00;6.47;;;8.90;99.90;8.80;100231.00;;;;4871592;28;92856;-66
2022/04/21 08:05:17;;;;;;;10.67;6.23;;;8.90;99.90;8.80;100238.00;;;;4871415;28;103617;-66
2022/04/21 08:07:44;;;;;;;9.27;7.00;;;9.50;99.90;8.80;100244.00;;;;4864258;28;94505;-66
2022/04/21 08:10:11;;;;;;;10.97;5.87;;;8.80;99.90;8.80;100248.00;;;;4868750;28;92860;-66
2022/04/21 08:12:51;;;;;;;15.07;6.27;;;8.80;99.90;8.80;100246.00;;;;4870882;28;94095;-67
2022/04/21 08:15:35;;;;;;;8.07;6.20;;;8.80;99.90;8.70;100249.00;;;;4871582;28;93077;-66
2022/04/21 08:18:04;;;;;;;9.67;5.70;;;8.80;99.90;8.80;100249.00;;;;4852853;28;93567;-67
2022/04/21 08:20:33;;;;;;;14.43;6.63;;;8.80;99.90;8.80;100253.00;;;;4869392;28;111305;-67
2022/04/21 08:22:59;;;;;;;9.07;5.47;;;8.80;99.90;8.80;100249.00;;;;4856639;28;93324;-68
2022/04/21 08:33:37;;;;;;;8.50;6.90;;;8.80;99.90;8.80;100263.00;;;;4873601;28;92928;-66
2022/04/21 08:36:03;;;;;;;19.60;11.30;;;8.80;99.90;8.80;100261.00;;;;4874592;28;92971;-66
2022/04/21 08:38:30;;;;;;;10.03;7.17;;;8.80;99.90;8.80;100265.00;;;;4872602;28;95103;-66
2022/04/21 08:40:58;;;;;;;16.80;11.33;;;8.80;99.90;8.80;100256.00;;;;4869938;28;111885;-66
2022/04/21 08:43:27;;;;;;;10.50;8.00;;;8.80;99.90;8.80;100257.00;;;;4873783;28;93044;-66
2022/04/21 08:45:54;;;;;;;13.93;9.03;;;8.80;99.90;8.80;100263.00;;;;4873240;28;92973;-66
2022/04/21 08:49:10;;;;;;;20.43;13.03;;;8.80;99.90;8.80;100260.00;;;;4873443;28;94236;-66
2022/04/21 08:51:35;;;;;;;10.73;7.30;;;8.90;99.90;8.90;100269.00;;;;4847765;28;92922;-66
2022/04/21 08:54:14;;;;;;;38.10;29.77;;;8.90;99.90;8.90;100259.00;;;;4871551;28;114292;-65
2022/04/21 08:56:41;;;;;;;141.10;88.67;;;8.90;99.90;9.00;100264.00;;;;4873134;28;91904;-65
2022/04/21 08:59:06;;;;;;;44.27;33.10;;;9.00;99.90;9.00;100267.00;;;;4872197;28;122335;-65
2022/04/21 09:01:33;;;;;;;13.03;9.67;;;9.00;99.90;9.10;100271.00;;;;4872696;28;93442;-66
2022/04/21 09:03:58;;;;;;;10.27;7.67;;;9.10;99.90;9.20;100266.00;;;;4871931;28;94495;-66
2022/04/21 09:06:24;;;;;;;7.90;7.10;;;9.20;99.90;9.30;100277.00;;;;4872603;28;107703;-66
2022/04/21 09:09:17;;;;;;;6.23;5.63;;;9.20;99.90;9.40;100270.00;;;;4870985;28;122134;-67
2022/04/21 09:11:44;;;;;;;9.47;7.43;;;9.40;99.90;9.60;100279.00;;;;4855234;28;93217;-67
2022/04/21 09:14:15;;;;;;;6.00;4.70;;;9.50;99.90;9.70;100263.00;;;;4871319;28;97455;-67
2022/04/21 09:16:41;;;;;;;7.83;4.67;;;9.60;99.90;9.90;100268.00;;;;4854950;28;97607;-68
2022/04/21 09:19:06;;;;;;;5.93;4.50;;;9.80;99.90;10.00;100281.00;;;;4872679;28;122944;-67
2022/04/21 09:21:40;;;;;;;5.37;4.20;;;9.90;99.90;10.00;100281.00;;;;4871843;28;122042;-67
2022/04/21 09:24:26;;;;;;;11.13;7.97;;;10.00;99.90;10.10;100273.00;;;;4872409;28;93045;-67
2022/04/21 09:26:52;;;;;;;21.23;16.23;;;10.00;99.90;10.10;100283.00;;;;4868061;28;92925;-67
2022/04/21 09:29:30;;;;;;;108.67;60.10;;;10.10;99.90;10.10;100282.00;;;;4854024;28;94069;-67
2022/04/21 09:32:06;;;;;;;17.53;11.43;;;10.10;99.90;10.10;100282.00;;;;4871713;28;93911;-67
2022/04/21 09:34:31;;;;;;;5.03;3.87;;;10.10;99.90;10.10;100285.00;;;;4871224;28;103257;-67
2022/04/21 09:36:58;;;;;;;4.17;3.73;;;10.10;99.90;10.10;100285.00;;;;4869634;28;108887;-67
2022/04/21 09:39:24;;;;;;;4.17;3.33;;;10.10;99.90;10.10;100291.00;;;;4873040;28;93501;-67
2022/04/21 09:41:54;;;;;;;13.70;8.03;;;10.10;99.90;10.10;100285.00;;;;4855364;28;93388;-67
2022/04/21 09:47:08;;;;;;;6.50;3.07;;;10.10;99.90;10.00;100276.00;;;;4855465;28;92256;-67
2022/04/21 09:49:42;;;;;;;11.20;10.13;;;10.00;99.90;9.90;100276.00;;;;4872436;28;114804;-67
2022/04/21 09:52:07;;;;;;;10.27;7.33;;;9.90;99.90;9.90;100283.00;;;;4870196;28;93833;-67
2022/04/21 09:54:36;;;;;;;5.43;3.27;;;9.90;99.90;9.90;100278.00;;;;4872118;28;93606;-66
2022/04/21 09:57:03;;;;;;;29.17;26.17;;;9.90;99.90;9.90;100279.00;;;;4868611;28;92887;-66
2022/04/21 09:59:35;;;;;;;5.23;4.37;;;9.90;99.90;9.90;100277.00;;;;4872295;28;93053;-66
2022/04/21 10:02:02;;;;;;;5.03;3.50;;;9.90;99.90;9.90;100270.00;;;;4872616;28;93138;-66
2022/04/21 10:04:30;;;;;;;7.67;6.27;;;9.90;99.90;9.90;100277.00;;;;4855203;28;92895;-66
2022/04/21 10:06:57;;;;;;;11.83;10.50;;;9.90;99.90;10.00;100285.00;;;;4870841;28;92814;-67
2022/04/21 10:09:23;;;;;;;10.07;6.67;;;9.90;99.90;9.90;100279.00;;;;4848458;28;113697;-66
2022/04/21 10:11:58;;;;;;;15.20;10.07;;;10.00;99.90;10.00;100281.00;;;;4872760;28;93109;-66
2022/04/21 10:14:36;;;;;;;25.67;19.23;;;10.00;99.90;9.90;100290.00;;;;4855183;28;92768;-66
2022/04/21 10:17:02;;;;;;;12.53;8.37;;;9.90;99.90;9.90;100285.00;;;;4869260;28;104174;-66
2022/04/21 10:19:28;;;;;;;14.40;8.67;;;9.90;99.90;9.90;100279.00;;;;4871612;28;95378;-66
2022/04/21 10:22:03;;;;;;;11.70;7.90;;;9.90;99.90;9.90;100276.00;;;;4871535;28;94912;-66
2022/04/21 10:24:34;;;;;;;4.13;3.77;;;9.90;99.90;9.90;100277.00;;;;4870914;28;93070;-65
2022/04/21 10:27:00;;;;;;;3.13;2.80;;;9.90;99.90;9.90;100288.00;;;;4872662;28;92978;-66
2022/04/21 10:29:27;;;;;;;14.03;10.07;;;9.90;99.90;9.80;100278.00;;;;4871057;28;93448;-66
2022/04/21 10:32:03;;;;;;;7.97;7.17;;;9.90;99.90;9.80;100285.00;;;;4870967;28;93699;-65
2022/04/21 10:34:45;;;;;;;8.60;5.73;;;9.80;99.90;9.80;100290.00;;;;4872304;28;93255;-65
2022/04/21 10:37:15;;;;;;;9.67;7.33;;;9.90;99.90;9.80;100294.00;;;;4872119;28;92255;-65
2022/04/21 10:40:09;;;;;;;3.33;2.87;;;9.90;99.90;9.80;100285.00;;;;4870882;28;92994;-65
2022/04/21 10:42:57;;;;;;;6.67;4.40;;;9.80;99.90;9.80;100288.00;;;;4853968;28;93867;-66
2022/04/21 10:45:28;;;;;;;6.43;5.57;;;9.80;99.90;9.80;100285.00;;;;4871575;28;94146;-66
2022/04/21 10:48:12;;;;;;;7.70;5.23;;;9.80;99.90;9.80;100285.00;;;;4872353;28;93025;-66
2022/04/21 10:50:42;;;;;;;7.80;5.73;;;9.90;99.90;9.90;100283.00;;;;4870904;28;94527;-65
2022/04/21 10:58:38;;;;;;;5.83;2.77;;;9.90;99.90;10.00;100286.00;;;;4856527;28;93179;-65
2022/04/21 11:01:11;;;;;;;3.03;2.27;;;10.00;99.90;9.90;100283.00;;;;4870182;28;94419;-66
2022/04/21 11:03:37;;;;;;;2.70;2.17;;;10.00;99.90;9.90;100282.00;;;;4871860;28;93646;-65
2022/04/21 11:06:39;;;;;;;2.63;2.23;;;9.90;99.90;9.90;100282.00;;;;4853856;28;92689;-65
2022/04/21 11:09:04;;;;;;;2.03;1.70;;;9.90;99.90;10.00;100282.00;;;;4870001;28;92976;-65
2022/04/21 11:11:47;;;;;;;30.97;18.83;;;10.00;99.90;10.10;100281.00;;;;4869938;28;123270;-65
2022/04/21 11:14:28;;;;;;;9.70;7.37;;;10.00;99.90;10.20;100274.00;;;;4871319;28;93049;-65
2022/04/21 11:16:58;;;;;;;10.33;8.30;;;10.20;99.90;10.30;100275.00;;;;4871544;28;92904;-65
2022/04/21 11:19:31;;;;;;;3.93;2.63;;;10.30;99.90;10.30;100286.00;;;;4872115;28;93286;-65
2022/04/21 11:22:02;;;;;;;3.83;2.47;;;10.30;99.90;10.30;100283.00;;;;4869210;28;93100;-66
2022/04/21 11:25:01;;;;;;;4.20;3.00;;;10.30;99.90;10.20;100269.00;;;;4871568;28;92999;-65
2022/04/21 11:27:27;;;;;;;4.07;3.67;;;10.20;99.90;10.10;100276.00;;;;4871079;28;93162;-65
2022/04/21 11:30:03;;;;;;;4.60;3.50;;;10.10;99.90;10.20;100279.00;;;;4871753;28;97193;-65
2022/04/21 11:32:29;;;;;;;3.83;3.50;;;10.20;99.90;10.20;100283.00;;;;4848006;28;93814;-65
2022/04/21 11:35:11;;;;;;;4.13;3.83;;;10.20;99.90;10.30;100290.00;;;;4853175;28;94163;-65
2022/04/21 11:37:48;;;;;;;3.43;3.10;;;10.30;99.90;10.20;100287.00;;;;4870793;28;93676;-65
2022/04/21 11:40:33;;;;;;;4.43;3.30;;;10.30;99.90;10.20;100285.00;;;;4853984;28;92798;-66
2022/04/21 11:43:22;;;;;;;5.93;3.67;;;10.20;99.90;10.20;100285.00;;;;4851478;28;92752;-65
2022/04/21 11:46:04;;;;;;;5.93;3.73;;;10.20;99.90;10.20;100281.00;;;;4870799;28;93243;-64
2022/04/21 11:48:38;;;;;;;6.10;4.17;;;10.20;99.90;10.20;100283.00;;;;4871785;28;92930;-65
2022/04/21 11:51:04;;;;;;;21.53;18.07;;;10.20;99.90;10.30;100283.00;;;;4866649;28;93029;-65